Time;durP1;ratioP1;P1;durP2;ratioP2;P2;SDS_P1;SDS_P2;PMS_P1;PMS_P2;Temp;Humidity;BMP_temperature;BMP_pressure;BME280_temperature;BME280_humidity;BME280_pressure;Samples;Min_cycle;Max_cycle;Signal;HPM_P1;HPM_P2
2022/01/20 00:00:18;;;;;;;7.32;5.43;;;3.10;99.90;;;;;;5039901;28;20021;-69
2022/01/20 00:02:46;;;;;;;10.90;6.13;;;3.10;99.90;;;;;;5048593;28;20033;-69
2022/01/20 00:27:19;;;;;;;6.72;4.60;;;2.90;99.90;;;;;;5034626;28;20048;-71
2022/01/20 00:35:18;;;;;;;5.30;4.43;;;2.90;99.90;;;;;;5031168;28;20108;-69
2022/01/20 00:37:44;;;;;;;5.05;4.05;;;2.90;99.90;;;;;;5036973;28;20028;-70
2022/01/20 00:40:10;;;;;;;6.25;4.35;;;2.90;99.90;;;;;;5028627;28;20053;-70
2022/01/20 00:42:36;;;;;;;7.30;4.00;;;2.90;99.90;;;;;;5028754;28;20076;-70
2022/01/20 00:45:02;;;;;;;5.13;4.00;;;2.90;99.90;;;;;;5039489;28;20060;-70
2022/01/20 00:47:29;;;;;;;3.97;3.42;;;2.80;99.90;;;;;;5044663;28;20083;-71
2022/01/20 00:49:55;;;;;;;4.95;3.63;;;2.80;99.90;;;;;;5028963;28;20033;-71
2022/01/20 00:52:20;;;;;;;4.88;3.58;;;2.80;99.90;;;;;;5029009;28;20060;-70
2022/01/20 00:54:46;;;;;;;6.22;3.92;;;2.80;99.90;;;;;;5033556;28;20072;-70
2022/01/20 00:57:13;;;;;;;5.88;3.88;;;2.80;99.90;;;;;;5029704;28;20021;-69
2022/01/20 00:59:39;;;;;;;5.38;3.90;;;2.80;99.90;;;;;;5029243;28;20025;-70
2022/01/20 01:02:09;;;;;;;5.25;4.03;;;2.80;99.90;;;;;;5028719;28;20512;-70
2022/01/20 01:04:37;;;;;;;4.70;3.60;;;2.80;99.90;;;;;;5045786;28;20434;-70
2022/01/20 01:09:29;;;;;;;5.05;3.78;;;2.80;99.90;;;;;;5050207;28;20392;-70
2022/01/20 01:12:00;;;;;;;4.13;3.20;;;2.80;99.90;;;;;;5034918;28;20032;-70
2022/01/20 01:14:28;;;;;;;4.57;3.58;;;2.80;99.90;;;;;;5029443;28;20064;-70
2022/01/20 01:24:38;;;;;;;3.40;3.10;;;2.70;99.90;;;;;;5030055;28;20025;-70
2022/01/20 01:27:05;;;;;;;3.75;3.10;;;2.70;99.90;;;;;;5028253;28;20026;-70
2022/01/20 01:32:19;;;;;;;3.67;2.95;;;2.70;99.90;;;;;;5028965;28;20401;-70
2022/01/20 01:34:49;;;;;;;3.53;3.22;;;2.70;99.90;;;;;;5045176;28;20037;-71
2022/01/20 01:40:07;;;;;;;3.40;3.10;;;2.70;99.90;;;;;;5034977;28;20033;-70
2022/01/20 01:42:43;;;;;;;3.40;2.75;;;2.70;99.90;;;;;;5041366;28;20090;-70
2022/01/20 01:45:17;;;;;;;2.83;2.53;;;2.70;99.90;;;;;;5029540;28;20038;-70
2022/01/20 01:47:46;;;;;;;3.22;2.72;;;2.80;99.90;;;;;;5031165;28;20180;-70
2022/01/20 01:50:12;;;;;;;2.88;2.58;;;2.70;99.90;;;;;;5031507;28;20040;-70
2022/01/20 01:52:38;;;;;;;4.25;3.05;;;2.80;99.90;;;;;;5031699;28;20141;-71
2022/01/20 01:55:04;;;;;;;3.10;2.80;;;2.80;99.90;;;;;;5032242;28;20025;-69
2022/01/20 01:57:30;;;;;;;3.05;2.67;;;2.80;99.90;;;;;;5031049;28;20022;-70
2022/01/20 01:59:56;;;;;;;3.10;2.80;;;2.80;99.90;;;;;;5030009;28;20402;-71
2022/01/20 02:02:22;;;;;;;2.65;2.45;;;2.80;99.90;;;;;;5023794;28;20040;-70
2022/01/20 02:04:49;;;;;;;2.95;2.65;;;2.80;99.90;;;;;;5031783;28;20036;-70
2022/01/20 02:20:49;;;;;;;4.18;2.92;;;2.70;99.90;;;;;;5033392;28;20068;-70
2022/01/20 02:23:15;;;;;;;2.97;2.67;;;2.70;99.90;;;;;;5031434;28;20060;-70
2022/01/20 02:25:41;;;;;;;2.92;2.60;;;2.70;99.90;;;;;;5028108;28;20021;-70
2022/01/20 02:28:09;;;;;;;3.28;2.70;;;2.70;99.90;;;;;;5038547;28;20040;-69
2022/01/20 02:30:37;;;;;;;3.72;3.10;;;2.70;99.90;;;;;;5018046;28;20570;-70
2022/01/20 02:33:09;;;;;;;3.28;2.97;;;2.70;99.90;;;;;;5027209;28;20036;-69
2022/01/20 02:35:38;;;;;;;3.78;3.08;;;2.70;99.90;;;;;;5031631;28;20040;-70
2022/01/20 02:38:13;;;;;;;4.13;3.22;;;2.70;99.90;;;;;;5030434;28;20032;-69
2022/01/20 02:45:54;;;;;;;4.75;3.70;;;2.70;99.90;;;;;;5031053;28;20048;-70
2022/01/20 02:48:20;;;;;;;3.70;3.35;;;2.70;99.90;;;;;;5030396;28;20660;-69
2022/01/20 02:50:46;;;;;;;4.43;3.38;;;2.70;99.90;;;;;;5031151;28;20494;-70
2022/01/20 02:53:12;;;;;;;3.85;3.35;;;2.70;99.90;;;;;;5046710;22;20034;-71
2022/01/20 02:55:38;;;;;;;4.45;4.05;;;2.70;99.90;;;;;;5043927;28;20499;-71
2022/01/20 02:58:05;;;;;;;5.75;4.07;;;2.70;99.90;;;;;;5032970;28;20369;-71
2022/01/20 03:00:31;;;;;;;4.50;3.75;;;2.70;99.90;;;;;;5038252;28;20409;-71
2022/01/20 03:02:57;;;;;;;5.05;4.13;;;2.70;99.90;;;;;;5034037;28;20396;-68
2022/01/20 03:05:23;;;;;;;4.93;4.40;;;2.70;99.90;;;;;;5039979;28;20021;-68
2022/01/20 03:07:48;;;;;;;5.18;4.20;;;2.70;99.90;;;;;;5031386;28;20118;-70
2022/01/20 03:10:16;;;;;;;5.53;4.40;;;2.70;99.90;;;;;;5032687;28;20159;-70
2022/01/20 03:12:41;;;;;;;5.53;4.88;;;2.70;99.90;;;;;;5049612;28;20029;-70
2022/01/20 03:15:07;;;;;;;5.10;4.57;;;2.70;99.90;;;;;;5049965;28;20372;-70
2022/01/20 03:17:33;;;;;;;5.55;4.55;;;2.70;99.90;;;;;;5032058;28;20025;-70
2022/01/20 03:19:59;;;;;;;6.43;4.35;;;2.70;99.90;;;;;;5029776;28;20115;-70
2022/01/20 03:22:25;;;;;;;6.60;5.18;;;2.70;99.90;;;;;;5029587;28;20045;-70
2022/01/20 03:24:51;;;;;;;7.88;4.82;;;2.70;99.90;;;;;;5035540;28;20037;-68
2022/01/20 03:27:17;;;;;;;6.25;4.80;;;2.70;99.90;;;;;;5032668;28;20909;-70
2022/01/20 03:29:42;;;;;;;6.25;4.85;;;2.70;99.90;;;;;;5032248;28;20025;-68
2022/01/20 03:32:08;;;;;;;6.22;4.53;;;2.70;99.90;;;;;;5032626;28;20532;-68
2022/01/20 03:34:34;;;;;;;5.15;4.35;;;2.60;99.90;;;;;;5032280;28;20056;-68
2022/01/20 03:37:03;;;;;;;8.65;4.80;;;2.60;99.90;;;;;;5032752;28;20112;-71
2022/01/20 03:39:30;;;;;;;6.22;4.15;;;2.60;99.90;;;;;;5031495;28;20358;-68
2022/01/20 03:41:55;;;;;;;6.22;4.22;;;2.60;99.90;;;;;;5033130;28;20123;-68
2022/01/20 03:44:21;;;;;;;5.78;3.90;;;2.60;99.90;;;;;;5031988;28;20527;-70
2022/01/20 03:46:47;;;;;;;5.20;4.45;;;2.60;99.90;;;;;;5027198;28;20076;-68
2022/01/20 03:49:26;;;;;;;4.85;4.05;;;2.60;99.90;;;;;;5028082;28;20052;-68
2022/01/20 03:51:54;;;;;;;6.18;4.28;;;2.50;99.90;;;;;;5030138;28;20032;-70
2022/01/20 03:54:19;;;;;;;4.65;3.90;;;2.50;99.90;;;;;;5031603;28;20109;-70
2022/01/20 03:56:45;;;;;;;5.22;4.00;;;2.50;99.90;;;;;;5031979;28;20071;-68
2022/01/20 03:59:10;;;;;;;6.30;4.47;;;2.50;99.90;;;;;;5028721;28;20029;-70
2022/01/20 04:01:36;;;;;;;5.70;3.90;;;2.50;99.90;;;;;;5032450;28;20514;-70
2022/01/20 04:04:02;;;;;;;6.15;4.85;;;2.50;99.90;;;;;;5032098;28;20511;-70
2022/01/20 04:06:28;;;;;;;4.68;4.20;;;2.50;99.90;;;;;;5032388;28;20127;-70
2022/01/20 04:08:54;;;;;;;5.28;4.28;;;2.60;99.90;;;;;;5027383;28;20476;-70
2022/01/20 04:11:23;;;;;;;7.25;4.40;;;2.60;99.90;;;;;;5032476;28;20052;-70
2022/01/20 04:13:50;;;;;;;5.43;4.53;;;2.60;99.90;;;;;;5032421;28;20143;-70
2022/01/20 04:16:49;;;;;;;6.13;4.88;;;2.60;99.90;;;;;;5047983;28;20028;-70
2022/01/20 04:19:15;;;;;;;6.32;4.82;;;2.60;99.90;;;;;;5031358;28;20033;-70
2022/01/20 04:21:42;;;;;;;7.03;4.65;;;2.60;99.90;;;;;;5032303;28;20116;-70
2022/01/20 04:24:10;;;;;;;6.22;4.63;;;2.60;99.90;;;;;;5032031;28;20057;-70
2022/01/20 04:26:38;;;;;;;6.45;5.43;;;2.60;99.90;;;;;;5039224;28;20671;-70
2022/01/20 04:29:05;;;;;;;5.78;4.50;;;2.60;99.90;;;;;;5031061;28;20056;-70
2022/01/20 04:31:32;;;;;;;7.22;5.18;;;2.60;99.90;;;;;;5032041;28;20037;-70
2022/01/20 04:33:59;;;;;;;7.28;5.63;;;2.60;99.90;;;;;;5031342;28;20025;-70
2022/01/20 04:36:26;;;;;;;7.22;5.43;;;2.60;99.90;;;;;;5032270;28;20048;-70
2022/01/20 04:38:53;;;;;;;8.88;5.63;;;2.60;99.90;;;;;;5031642;28;20025;-70
2022/01/20 04:41:20;;;;;;;9.40;6.10;;;2.60;99.90;;;;;;5032020;28;20029;-70
2022/01/20 04:43:46;;;;;;;8.98;5.82;;;2.60;99.90;;;;;;5031363;28;20036;-70
2022/01/20 04:46:22;;;;;;;10.05;6.18;;;2.60;99.90;;;;;;5031548;28;20036;-70
2022/01/20 04:57:17;;;;;;;8.05;6.22;;;2.60;99.90;;;;;;5048502;28;20040;-70
2022/01/20 04:59:45;;;;;;;7.90;6.07;;;2.60;99.90;;;;;;5025595;28;20382;-70
2022/01/20 05:02:11;;;;;;;9.82;6.45;;;2.60;99.90;;;;;;5033156;28;20021;-71
2022/01/20 05:04:39;;;;;;;12.20;7.20;;;2.60;99.90;;;;;;5031505;28;20037;-70
2022/01/20 05:07:05;;;;;;;13.32;6.40;;;2.60;99.90;;;;;;5031494;28;20381;-71
2022/01/20 05:09:31;;;;;;;10.00;6.63;;;2.60;99.90;;;;;;5031464;28;20455;-70
2022/01/20 05:12:00;;;;;;;9.57;6.85;;;2.60;99.90;;;;;;5034579;28;20132;-71
2022/01/20 05:14:27;;;;;;;10.35;6.88;;;2.60;99.90;;;;;;5035523;28;20033;-71
2022/01/20 05:16:55;;;;;;;11.43;7.18;;;2.60;99.90;;;;;;5020598;28;20022;-71
2022/01/20 05:19:23;;;;;;;11.75;6.90;;;2.60;99.90;;;;;;5031900;28;20029;-71
2022/01/20 05:21:49;;;;;;;11.23;7.47;;;2.60;99.90;;;;;;5039487;28;20025;-71
2022/01/20 05:24:14;;;;;;;11.38;7.25;;;2.60;99.90;;;;;;5042281;28;20025;-71
2022/01/20 05:26:40;;;;;;;10.75;6.70;;;2.70;99.90;;;;;;5034149;28;20097;-71
2022/01/20 05:29:06;;;;;;;12.80;6.93;;;2.60;99.90;;;;;;5036975;28;20121;-71
2022/01/20 05:31:31;;;;;;;10.30;6.70;;;2.60;99.90;;;;;;5030148;28;20034;-70
2022/01/20 05:33:57;;;;;;;12.27;6.63;;;2.70;99.90;;;;;;5027996;28;20034;-70
2022/01/20 05:36:23;;;;;;;16.55;7.00;;;2.70;99.90;;;;;;5031254;28;20412;-71
2022/01/20 05:38:49;;;;;;;11.20;7.15;;;2.70;99.90;;;;;;5045534;28;20028;-71
2022/01/20 05:41:15;;;;;;;13.18;7.00;;;2.70;99.90;;;;;;5025320;28;20030;-71
2022/01/20 05:43:41;;;;;;;10.98;6.70;;;2.70;99.90;;;;;;5041053;28;20548;-70
2022/01/20 05:46:08;;;;;;;9.07;6.03;;;2.70;99.90;;;;;;5033979;28;20028;-71
2022/01/20 05:48:35;;;;;;;8.27;6.35;;;2.70;99.90;;;;;;5032136;28;20083;-70
2022/01/20 05:51:04;;;;;;;10.65;6.60;;;2.70;99.90;;;;;;5027226;28;20029;-70
2022/01/20 05:53:30;;;;;;;11.10;6.90;;;2.70;99.90;;;;;;5032827;28;20071;-71
2022/01/20 05:55:56;;;;;;;11.85;7.00;;;2.70;99.90;;;;;;5032524;28;20564;-71
2022/01/20 05:58:22;;;;;;;13.15;7.10;;;2.70;99.90;;;;;;5034494;28;20104;-70
2022/01/20 06:00:48;;;;;;;11.95;6.65;;;2.70;99.90;;;;;;5031554;28;20036;-71
2022/01/20 06:05:59;;;;;;;8.75;5.72;;;2.70;99.90;;;;;;5050084;28;20040;-71
2022/01/20 06:08:25;;;;;;;11.82;5.32;;;2.70;99.90;;;;;;5033516;28;20040;-70
2022/01/20 06:10:51;;;;;;;12.07;6.38;;;2.70;99.90;;;;;;5034778;28;20448;-71
2022/01/20 06:13:17;;;;;;;9.73;6.47;;;2.70;99.90;;;;;;5033996;28;20041;-70
2022/01/20 06:15:42;;;;;;;8.82;6.25;;;2.70;99.90;;;;;;5041458;28;20048;-70
2022/01/20 06:18:09;;;;;;;10.93;6.85;;;2.70;99.90;;;;;;5047315;28;20065;-70
2022/01/20 06:20:36;;;;;;;10.68;7.28;;;2.60;99.90;;;;;;5034812;28;20048;-70
2022/01/20 06:23:05;;;;;;;10.68;7.57;;;2.60;99.90;;;;;;5040084;28;20492;-71
2022/01/20 06:25:31;;;;;;;13.80;7.47;;;2.60;99.90;;;;;;5033960;28;20036;-70
2022/01/20 06:27:57;;;;;;;19.35;9.38;;;2.60;99.90;;;;;;5031754;28;20068;-70
2022/01/20 06:30:24;;;;;;;13.85;7.05;;;2.60;99.90;;;;;;5035086;28;20056;-70
2022/01/20 06:32:54;;;;;;;11.70;6.70;;;2.60;99.90;;;;;;5046913;28;20067;-70
2022/01/20 06:35:20;;;;;;;18.58;7.40;;;2.60;99.90;;;;;;5034035;28;20029;-70
2022/01/20 06:37:46;;;;;;;13.25;7.45;;;2.60;99.90;;;;;;5034382;28;20061;-71
2022/01/20 06:40:12;;;;;;;14.27;7.25;;;2.60;99.90;;;;;;5035004;28;20467;-70
2022/01/20 06:42:38;;;;;;;13.38;7.28;;;2.60;99.90;;;;;;5017604;28;20076;-70
2022/01/20 06:45:06;;;;;;;11.50;6.85;;;2.60;99.90;;;;;;5029061;28;20476;-70
2022/01/20 06:47:35;;;;;;;13.27;6.60;;;2.60;99.90;;;;;;5025010;28;20040;-70
2022/01/20 06:50:01;;;;;;;15.38;6.93;;;2.60;99.90;;;;;;5036985;28;20029;-69
2022/01/20 06:52:28;;;;;;;14.40;7.38;;;2.60;99.90;;;;;;5040449;28;20078;-71
2022/01/20 06:54:54;;;;;;;14.60;6.63;;;2.60;99.90;;;;;;5041081;28;20044;-70
2022/01/20 06:57:21;;;;;;;15.15;7.10;;;2.60;99.90;;;;;;5051234;28;20100;-70
2022/01/20 06:59:46;;;;;;;13.43;6.30;;;2.60;99.90;;;;;;5034698;28;20593;-70
2022/01/20 07:02:12;;;;;;;11.85;7.03;;;2.60;99.90;;;;;;5034485;28;20041;-70
2022/01/20 07:04:38;;;;;;;12.38;7.07;;;2.60;99.90;;;;;;5034002;28;20409;-70
2022/01/20 07:07:05;;;;;;;11.50;5.82;;;2.60;99.90;;;;;;5025288;28;20025;-70
2022/01/20 07:09:31;;;;;;;11.57;5.53;;;2.60;99.90;;;;;;5042364;28;20036;-70
2022/01/20 07:11:57;;;;;;;9.57;5.32;;;2.50;99.90;;;;;;5039417;28;20139;-70
2022/01/20 07:14:23;;;;;;;13.70;6.30;;;2.50;99.90;;;;;;5033717;28;20131;-70
2022/01/20 07:16:49;;;;;;;10.18;5.05;;;2.50;99.90;;;;;;5034969;28;20028;-70
2022/01/20 07:19:15;;;;;;;8.88;4.47;;;2.50;99.90;;;;;;5032676;28;20449;-70
2022/01/20 07:21:41;;;;;;;11.82;4.88;;;2.50;99.90;;;;;;5034277;28;20052;-70
2022/01/20 07:24:07;;;;;;;9.48;5.10;;;2.50;99.90;;;;;;5034481;28;20489;-71
2022/01/20 07:26:33;;;;;;;8.82;4.65;;;2.50;99.90;;;;;;5040162;28;20034;-70
2022/01/20 07:28:59;;;;;;;9.60;4.57;;;2.50;99.90;;;;;;5049249;28;20033;-71
2022/01/20 07:31:25;;;;;;;9.80;4.60;;;2.50;99.90;;;;;;5033754;28;20024;-69
2022/01/20 07:33:51;;;;;;;9.55;4.22;;;2.50;99.90;;;;;;5051396;28;20025;-69
2022/01/20 07:36:18;;;;;;;10.57;4.13;;;2.50;99.90;;;;;;5033435;28;20037;-69
2022/01/20 07:38:44;;;;;;;13.98;4.47;;;2.50;99.90;;;;;;5032395;28;20673;-69
2022/01/20 07:41:10;;;;;;;9.13;4.40;;;2.50;99.90;;;;;;5025328;28;20037;-69
2022/01/20 07:43:36;;;;;;;10.15;4.40;;;2.50;99.90;;;;;;5032282;28;20043;-69
2022/01/20 07:46:01;;;;;;;6.97;4.72;;;2.60;99.90;;;;;;5032861;28;20025;-69
2022/01/20 07:48:27;;;;;;;15.02;4.93;;;2.50;99.90;;;;;;5032008;28;20029;-69
2022/01/20 07:50:53;;;;;;;13.35;4.53;;;2.60;99.90;;;;;;5039807;28;20032;-68
2022/01/20 07:53:18;;;;;;;11.02;4.80;;;2.60;99.90;;;;;;5041364;28;20029;-69
2022/01/20 07:55:44;;;;;;;15.00;4.82;;;2.60;99.90;;;;;;5032714;28;20037;-68
2022/01/20 07:58:10;;;;;;;12.00;5.13;;;2.60;99.90;;;;;;5024414;28;20083;-69
2022/01/20 08:00:36;;;;;;;10.23;5.07;;;2.60;99.90;;;;;;5033474;28;20499;-69
2022/01/20 08:03:01;;;;;;;9.30;5.00;;;2.60;99.90;;;;;;5051612;28;20024;-69
2022/01/20 08:05:27;;;;;;;16.85;6.07;;;2.70;99.90;;;;;;5033660;28;20031;-69
2022/01/20 08:07:53;;;;;;;10.23;5.35;;;2.70;99.90;;;;;;5032390;28;20025;-69
2022/01/20 08:10:19;;;;;;;12.80;5.82;;;2.70;99.90;;;;;;5031318;28;20092;-69
2022/01/20 08:12:44;;;;;;;14.68;6.55;;;2.60;99.90;;;;;;5035739;28;20094;-69
2022/01/20 08:15:15;;;;;;;10.25;5.68;;;2.60;99.90;;;;;;5033548;28;20029;-69
2022/01/20 08:17:41;;;;;;;9.80;5.38;;;2.70;99.90;;;;;;5032727;28;20021;-68
2022/01/20 08:20:08;;;;;;;12.55;5.45;;;2.70;99.90;;;;;;5032899;28;20083;-69
2022/01/20 08:22:34;;;;;;;16.17;6.60;;;2.70;99.90;;;;;;5048764;28;20051;-69
2022/01/20 08:25:06;;;;;;;15.98;5.78;;;2.70;99.90;;;;;;5030805;28;20021;-69
2022/01/20 08:27:31;;;;;;;13.23;5.65;;;2.70;99.90;;;;;;5039290;28;20496;-69
2022/01/20 08:29:57;;;;;;;12.27;4.75;;;2.70;99.90;;;;;;5039739;28;20033;-69
2022/01/20 08:32:23;;;;;;;10.93;5.22;;;2.70;99.90;;;;;;5051097;28;20021;-69
2022/01/20 08:34:49;;;;;;;13.27;5.97;;;2.70;99.90;;;;;;5032303;28;20033;-69
2022/01/20 08:37:14;;;;;;;11.48;4.97;;;2.70;99.90;;;;;;5032593;28;21858;-69
2022/01/20 08:39:41;;;;;;;10.90;4.95;;;2.70;99.90;;;;;;5027657;28;20401;-69
2022/01/20 08:42:08;;;;;;;9.35;5.25;;;2.70;99.90;;;;;;5029364;28;20048;-69
2022/01/20 08:44:35;;;;;;;15.65;4.63;;;2.70;99.90;;;;;;5032780;28;20033;-69
2022/01/20 08:47:02;;;;;;;13.05;5.00;;;2.80;99.90;;;;;;5035238;28;20037;-69
2022/01/20 08:49:29;;;;;;;11.00;4.90;;;2.80;99.90;;;;;;5036597;28;20488;-68
2022/01/20 08:51:55;;;;;;;8.75;4.25;;;2.80;99.90;;;;;;5052926;28;20467;-69
2022/01/20 08:54:21;;;;;;;8.80;4.43;;;2.80;99.90;;;;;;5035972;28;20039;-69
2022/01/20 08:56:47;;;;;;;14.80;4.68;;;2.90;99.90;;;;;;5036871;28;20025;-72
2022/01/20 08:59:13;;;;;;;12.50;4.10;;;2.90;99.90;;;;;;5036219;28;20548;-71
2022/01/20 09:01:41;;;;;;;13.63;4.93;;;2.90;99.90;;;;;;5026487;28;20123;-72
2022/01/20 09:04:08;;;;;;;11.40;4.85;;;2.90;99.90;;;;;;5055972;22;20044;-69
2022/01/20 09:06:34;;;;;;;13.10;4.50;;;2.90;99.90;;;;;;5036739;28;20029;-69
2022/01/20 09:09:01;;;;;;;12.23;4.43;;;2.90;99.90;;;;;;5040792;28;20029;-69
2022/01/20 09:11:37;;;;;;;8.23;4.00;;;2.80;99.90;;;;;;5037528;28;20021;-69
2022/01/20 09:16:50;;;;;;;9.40;4.55;;;2.90;99.90;;;;;;5003929;28;20440;-68
2022/01/20 09:19:16;;;;;;;10.95;5.10;;;2.90;99.90;;;;;;5027726;28;20051;-69
2022/01/20 09:21:44;;;;;;;13.73;5.00;;;2.90;99.90;;;;;;5033835;28;20033;-68
2022/01/20 09:24:09;;;;;;;13.07;4.10;;;2.90;99.90;;;;;;5035204;28;20370;-68
2022/01/20 09:26:35;;;;;;;10.88;4.82;;;2.90;99.90;;;;;;5044982;28;20075;-68
2022/01/20 09:29:01;;;;;;;11.95;5.07;;;3.00;99.90;;;;;;5032453;28;20457;-68
2022/01/20 09:31:30;;;;;;;13.20;4.82;;;3.00;99.90;;;;;;5044974;28;20032;-68
2022/01/20 09:33:57;;;;;;;9.20;4.45;;;3.00;99.90;;;;;;5046852;28;20465;-68
2022/01/20 09:36:23;;;;;;;7.15;3.83;;;3.00;99.90;;;;;;5039614;28;20032;-68
2022/01/20 09:38:49;;;;;;;15.25;4.43;;;3.10;99.90;;;;;;5033865;28;20025;-68
2022/01/20 09:41:15;;;;;;;12.18;4.10;;;3.10;99.90;;;;;;5053099;28;20024;-68
2022/01/20 09:43:41;;;;;;;10.27;4.00;;;3.20;99.90;;;;;;5034225;28;20500;-68
2022/01/20 09:46:07;;;;;;;9.80;3.97;;;3.10;99.90;;;;;;5034270;28;20051;-68
2022/01/20 09:48:33;;;;;;;7.90;3.80;;;3.20;99.90;;;;;;5036156;28;20037;-69
2022/01/20 09:51:00;;;;;;;10.40;4.03;;;3.20;99.90;;;;;;5034969;28;20028;-69
2022/01/20 09:53:29;;;;;;;10.38;3.72;;;3.20;99.90;;;;;;5034694;28;20021;-69
2022/01/20 09:55:56;;;;;;;12.43;4.15;;;3.20;99.90;;;;;;5034345;28;20028;-68
2022/01/20 09:58:23;;;;;;;7.55;3.80;;;3.20;99.90;;;;;;5033056;28;20072;-68
2022/01/20 10:00:51;;;;;;;13.38;3.80;;;3.30;99.90;;;;;;5034912;28;20385;-68
2022/01/20 10:03:19;;;;;;;11.07;4.30;;;3.30;99.90;;;;;;5035107;28;20048;-70
2022/01/20 10:05:51;;;;;;;14.90;3.85;;;3.30;99.90;;;;;;5034523;28;20021;-70
2022/01/20 10:08:37;;;;;;;10.05;4.00;;;3.30;99.90;;;;;;5051008;28;20079;-69
2022/01/20 10:11:10;;;;;;;11.07;3.65;;;3.30;99.90;;;;;;5033048;28;20028;-69
2022/01/20 10:13:39;;;;;;;10.75;3.53;;;3.30;99.90;;;;;;5034578;28;20033;-68
2022/01/20 10:16:09;;;;;;;9.75;3.40;;;3.30;99.90;;;;;;5034607;28;20396;-69
2022/01/20 10:19:00;;;;;;;10.00;3.78;;;3.30;99.90;;;;;;5049354;28;20032;-69
2022/01/20 10:21:30;;;;;;;6.88;3.20;;;3.30;99.90;;;;;;5033945;28;20040;-70
2022/01/20 10:24:11;;;;;;;13.00;3.22;;;3.30;99.90;;;;;;5034532;28;20031;-72
2022/01/20 10:26:37;;;;;;;7.20;3.47;;;3.30;99.90;;;;;;5026847;28;20396;-68
2022/01/20 10:29:06;;;;;;;10.35;3.80;;;3.40;99.90;;;;;;5034792;28;20055;-69
2022/01/20 10:31:52;;;;;;;11.73;3.78;;;3.40;99.90;;;;;;5035326;28;20033;-68
2022/01/20 10:34:30;;;;;;;7.60;3.03;;;3.40;99.90;;;;;;5035162;28;20029;-68
2022/01/20 10:37:02;;;;;;;7.90;3.78;;;3.40;99.90;;;;;;5030709;28;20029;-68
2022/01/20 10:39:28;;;;;;;14.90;3.75;;;3.40;99.90;;;;;;5035404;28;20025;-69
2022/01/20 10:42:23;;;;;;;7.75;4.05;;;3.40;99.90;;;;;;5024718;28;20040;-68
2022/01/20 10:44:54;;;;;;;9.35;3.28;;;3.40;99.90;;;;;;5021830;28;20444;-69
2022/01/20 10:47:25;;;;;;;10.77;3.45;;;3.40;99.90;;;;;;5033851;28;20056;-68
2022/01/20 10:49:51;;;;;;;7.97;3.33;;;3.30;99.90;;;;;;5034651;28;20029;-68
2022/01/20 10:52:19;;;;;;;12.45;3.45;;;3.30;99.90;;;;;;5034757;28;20543;-68
2022/01/20 10:54:48;;;;;;;8.75;3.55;;;3.30;99.90;;;;;;5034562;28;20028;-68
2022/01/20 10:57:16;;;;;;;10.68;3.25;;;3.20;99.90;;;;;;5034621;28;20079;-67
2022/01/20 10:59:56;;;;;;;9.48;3.17;;;3.30;99.90;;;;;;5034686;28;20480;-68
2022/01/20 11:02:29;;;;;;;5.15;2.95;;;3.20;99.90;;;;;;5029361;28;20060;-67
2022/01/20 11:04:55;;;;;;;7.82;3.47;;;3.20;99.90;;;;;;5037490;28;20094;-68
2022/01/20 11:07:21;;;;;;;8.38;3.20;;;3.20;99.90;;;;;;5033948;28;20037;-68
2022/01/20 11:09:55;;;;;;;9.20;3.55;;;3.20;99.90;;;;;;5031459;28;20075;-69
2022/01/20 11:12:21;;;;;;;9.98;3.15;;;3.20;99.90;;;;;;5048521;28;20108;-70
2022/01/20 11:14:50;;;;;;;11.65;3.78;;;3.20;99.90;;;;;;5033564;28;20028;-69
2022/01/20 11:17:28;;;;;;;13.70;4.20;;;3.20;99.90;;;;;;5032178;28;20071;-68
2022/01/20 11:19:57;;;;;;;9.90;3.67;;;3.10;99.90;;;;;;5032014;28;20025;-68
2022/01/20 11:22:23;;;;;;;10.05;4.50;;;3.20;99.90;;;;;;5033323;28;20048;-69
2022/01/20 11:25:00;;;;;;;9.77;4.15;;;3.10;99.90;;;;;;5034124;28;20505;-67
2022/01/20 11:27:38;;;;;;;13.80;4.32;;;3.10;99.90;;;;;;5011078;28;20033;-69
2022/01/20 11:30:24;;;;;;;9.13;4.15;;;3.20;99.90;;;;;;5170724;27;20404;-68
2022/01/20 11:33:04;;;;;;;14.15;4.55;;;3.20;99.90;;;;;;5137593;27;20038;-68
2022/01/20 11:35:40;;;;;;;8.48;4.03;;;3.20;99.90;;;;;;5113853;28;20023;-67
2022/01/20 11:38:07;;;;;;;11.60;4.28;;;3.20;99.90;;;;;;5124801;28;20031;-68
2022/01/20 11:40:33;;;;;;;15.20;10.18;;;3.20;99.90;;;;;;5115985;28;20153;-68
2022/01/20 11:43:10;;;;;;;11.10;7.43;;;3.20;99.90;;;;;;5110821;28;20106;-68
2022/01/20 11:45:49;;;;;;;12.70;4.13;;;3.20;99.90;;;;;;5103927;28;20027;-68
2022/01/20 11:48:16;;;;;;;10.43;3.33;;;3.20;99.90;;;;;;5105494;27;20032;-68
2022/01/20 11:50:43;;;;;;;11.02;4.30;;;3.20;99.90;;;;;;5118833;28;20012;-67
2022/01/20 11:53:18;;;;;;;9.02;4.03;;;3.20;99.90;;;;;;5107676;28;20474;-67
2022/01/20 11:55:46;;;;;;;9.63;3.75;;;3.20;99.90;;;;;;5111828;28;20023;-68
2022/01/20 11:58:14;;;;;;;10.25;4.68;;;3.20;99.90;;;;;;5106064;28;20499;-68
2022/01/20 12:00:41;;;;;;;8.55;3.42;;;3.20;99.90;;;;;;5091738;28;20023;-67
2022/01/20 12:03:14;;;;;;;7.28;3.33;;;3.20;99.90;;;;;;5100657;28;20038;-68
2022/01/20 12:05:41;;;;;;;5.47;2.88;;;3.10;99.90;;;;;;5095913;28;20119;-68
2022/01/20 12:08:11;;;;;;;6.72;3.47;;;3.20;99.90;;;;;;5114965;27;20027;-68
2022/01/20 12:10:39;;;;;;;10.80;3.33;;;3.20;99.90;;;;;;5125074;28;20020;-67
2022/01/20 12:13:17;;;;;;;4.95;2.80;;;3.20;99.90;;;;;;5124674;28;20084;-68
2022/01/20 12:16:02;;;;;;;8.52;3.22;;;3.20;99.90;;;;;;5115961;28;20023;-68
2022/01/20 12:18:31;;;;;;;4.47;2.42;;;3.30;99.90;;;;;;5090217;28;20122;-67
2022/01/20 12:21:01;;;;;;;7.93;2.75;;;3.30;99.90;;;;;;5106705;28;20041;-68
2022/01/20 12:23:27;;;;;;;5.45;2.53;;;3.40;99.90;;;;;;5090437;28;20085;-68
2022/01/20 12:26:04;;;;;;;5.68;2.80;;;3.40;99.90;;;;;;5097953;28;20038;-68
2022/01/20 12:28:29;;;;;;;4.93;2.25;;;3.50;99.90;;;;;;5110172;28;20031;-68
2022/01/20 12:31:02;;;;;;;7.05;2.33;;;3.50;99.90;;;;;;5108413;28;20019;-68
2022/01/20 12:33:31;;;;;;;2.45;1.98;;;3.50;99.90;;;;;;5110507;28;20467;-69
2022/01/20 12:36:02;;;;;;;5.75;2.20;;;3.50;99.90;;;;;;5114227;28;20031;-67
2022/01/20 12:38:37;;;;;;;7.90;2.65;;;3.50;99.90;;;;;;5089518;28;20475;-68
2022/01/20 12:41:11;;;;;;;7.53;2.53;;;3.50;99.90;;;;;;5088352;28;20036;-67
2022/01/20 12:43:39;;;;;;;4.28;2.30;;;3.50;99.90;;;;;;5109258;28;20031;-67
2022/01/20 12:46:13;;;;;;;9.63;2.67;;;3.50;99.90;;;;;;5096190;28;20495;-67
2022/01/20 12:49:06;;;;;;;5.72;2.28;;;3.50;99.90;;;;;;5088901;28;20120;-68
2022/01/20 12:51:34;;;;;;;8.55;2.20;;;3.50;99.90;;;;;;5085962;28;20026;-68
2022/01/20 12:54:05;;;;;;;51.03;17.60;;;3.50;99.90;;;;;;5085330;28;20024;-68
2022/01/20 12:56:44;;;;;;;52.65;16.40;;;3.40;99.90;;;;;;5097617;28;20082;-68
2022/01/20 12:59:11;;;;;;;24.90;10.77;;;3.40;99.90;;;;;;5086756;28;20063;-69
2022/01/20 13:01:43;;;;;;;9.63;4.13;;;3.30;99.90;;;;;;5086581;28;20027;-68
2022/01/20 13:04:14;;;;;;;6.47;2.47;;;3.30;99.90;;;;;;5095252;28;20433;-68
2022/01/20 13:06:45;;;;;;;5.00;2.40;;;3.30;99.90;;;;;;5086791;28;20115;-68
2022/01/20 13:09:11;;;;;;;5.75;2.92;;;3.30;99.90;;;;;;5093047;28;20490;-68
2022/01/20 13:11:57;;;;;;;3.60;2.28;;;3.30;99.90;;;;;;5091548;28;20045;-68
2022/01/20 13:14:36;;;;;;;4.07;2.45;;;3.20;99.90;;;;;;5103415;28;20063;-67
2022/01/20 13:17:03;;;;;;;8.90;3.15;;;3.20;99.90;;;;;;5105630;28;20498;-67
2022/01/20 13:19:36;;;;;;;10.75;3.03;;;3.20;99.90;;;;;;5096052;28;20023;-68
2022/01/20 13:22:05;;;;;;;4.50;2.42;;;3.10;99.90;;;;;;5095228;28;20487;-67
2022/01/20 13:24:33;;;;;;;4.18;2.25;;;3.10;99.90;;;;;;5095199;28;20034;-68
2022/01/20 13:27:00;;;;;;;5.13;2.60;;;3.20;99.90;;;;;;5100295;28;20495;-68
2022/01/20 13:29:38;;;;;;;5.03;2.20;;;3.20;99.90;;;;;;5095767;28;20032;-68
2022/01/20 13:32:03;;;;;;;9.93;2.90;;;3.20;99.90;;;;;;5086654;28;20027;-69
2022/01/20 13:34:29;;;;;;;5.95;3.17;;;3.20;99.90;;;;;;5083787;28;20016;-68
2022/01/20 13:36:55;;;;;;;5.45;2.15;;;3.10;99.90;;;;;;5086531;28;20379;-69
2022/01/20 13:39:35;;;;;;;8.43;2.50;;;3.10;99.90;;;;;;5103414;28;20046;-69
2022/01/20 13:45:12;;;;;;;3.75;1.80;;;3.10;99.90;;;;;;5093693;28;20024;-69
2022/01/20 13:47:57;;;;;;;6.65;1.83;;;3.10;99.90;;;;;;5085309;28;20436;-69
2022/01/20 13:50:35;;;;;;;9.50;1.98;;;3.10;99.90;;;;;;5080976;28;20120;-68
2022/01/20 13:53:11;;;;;;;4.47;1.65;;;3.10;99.90;;;;;;5091119;28;20019;-68
2022/01/20 13:55:38;;;;;;;5.50;2.83;;;3.20;99.90;;;;;;5094916;28;20062;-69
2022/01/20 13:58:04;;;;;;;7.05;2.50;;;3.20;99.90;;;;;;5102423;28;20416;-69
2022/01/20 14:00:32;;;;;;;9.25;2.05;;;3.20;99.90;;;;;;5093886;28;20026;-69
2022/01/20 14:02:59;;;;;;;9.77;2.10;;;3.20;99.90;;;;;;5088208;28;20035;-68
2022/01/20 14:05:31;;;;;;;5.68;1.63;;;3.20;99.90;;;;;;5094167;28;20027;-69
2022/01/20 14:07:58;;;;;;;5.03;1.70;;;3.10;99.90;;;;;;5076695;28;20024;-69
2022/01/20 14:10:25;;;;;;;3.70;1.25;;;3.20;99.90;;;;;;5084586;28;20032;-69
2022/01/20 14:12:50;;;;;;;11.30;2.10;;;3.20;99.90;;;;;;5094147;28;20135;-68
2022/01/20 14:15:17;;;;;;;7.57;1.77;;;3.20;99.90;;;;;;5086297;28;20151;-70
2022/01/20 14:17:50;;;;;;;5.57;1.70;;;3.20;99.90;;;;;;5091701;28;20058;-69